createdAt,value
2022-09-25T00:02:25.029Z,16.60
2022-09-25T00:12:28.647Z,16.60
2022-09-25T00:22:33.653Z,16.60
2022-09-25T00:32:37.348Z,16.70
2022-09-25T00:42:42.401Z,16.70
2022-09-25T00:52:46.668Z,16.80
2022-09-25T01:02:54.520Z,16.90
2022-09-25T01:12:59.988Z,17.00
2022-09-25T01:23:18.791Z,16.70
2022-09-25T01:33:28.811Z,16.70
2022-09-25T01:43:37.596Z,16.70
2022-09-25T01:53:48.169Z,16.60
2022-09-25T02:03:57.614Z,16.70
2022-09-25T02:14:10.026Z,16.60
2022-09-25T02:24:21.250Z,16.50
2022-09-25T02:34:26.622Z,16.50
2022-09-25T02:44:37.905Z,16.30
2022-09-25T02:54:47.313Z,16.50
2022-09-25T03:04:52.613Z,16.50
2022-09-25T03:14:57.630Z,16.70
2022-09-25T03:25:01.307Z,17.00
2022-09-25T03:35:07.055Z,17.20
2022-09-25T03:45:11.423Z,17.10
2022-09-25T03:55:16.578Z,17.20
2022-09-25T04:05:20.283Z,17.10
2022-09-25T04:15:25.888Z,17.10
2022-09-25T04:25:29.531Z,17.10
2022-09-25T04:35:34.651Z,17.30
2022-09-25T04:45:38.523Z,17.20
2022-09-25T04:55:43.847Z,17.20
2022-09-25T05:05:47.479Z,17.30
2022-09-25T05:15:52.653Z,17.50
2022-09-25T05:25:58.333Z,17.40
2022-09-25T05:36:08.804Z,17.10
2022-09-25T05:46:12.781Z,17.10
2022-09-25T05:56:17.796Z,17.00
2022-09-25T06:06:26.673Z,17.00
2022-09-25T06:16:33.412Z,16.90
2022-09-25T06:26:37.207Z,16.90
2022-09-25T06:36:42.809Z,17.00
2022-09-25T06:46:49.951Z,17.10
2022-09-25T06:56:55.306Z,17.40
2022-09-25T07:07:00.854Z,17.60
2022-09-25T07:17:05.984Z,17.80
2022-09-25T07:27:09.770Z,17.80
2022-09-25T07:37:14.768Z,18.00
2022-09-25T07:47:19.756Z,18.20
2022-09-25T07:57:24.983Z,18.50
2022-09-25T08:07:29.489Z,18.60
2022-09-25T08:17:34.715Z,18.70
2022-09-25T08:27:41.159Z,19.10
2022-09-25T08:37:46.812Z,19.50
2022-09-25T08:48:10.425Z,19.80
2022-09-25T08:58:22.382Z,20.20
2022-09-25T09:08:29.648Z,20.60
2022-09-25T09:18:39.757Z,21.40
2022-09-25T09:29:28.224Z,21.90
2022-09-25T09:39:39.158Z,22.00
2022-09-25T09:49:47.606Z,22.10
2022-09-25T10:00:02.028Z,22.30
2022-09-25T10:10:15.469Z,22.80
2022-09-25T10:20:23.799Z,23.20
2022-09-25T10:30:27.744Z,23.40
2022-09-25T10:40:36.140Z,24.10
2022-09-25T10:50:39.846Z,24.40
2022-09-25T11:00:56.043Z,24.80
2022-09-25T11:11:01.229Z,25.20
2022-09-25T11:21:18.269Z,24.50
2022-09-25T11:31:26.671Z,25.80
2022-09-25T11:41:34.255Z,26.20
2022-09-25T11:52:21.510Z,25.80
2022-09-25T12:02:43.169Z,26.50
2022-09-25T12:12:54.688Z,27.20
2022-09-25T12:23:12.936Z,27.30
2022-09-25T12:33:32.021Z,27.20
2022-09-25T12:43:43.389Z,27.40
2022-09-25T12:53:50.795Z,27.50
2022-09-25T13:04:19.036Z,27.50
2022-09-25T13:14:31.491Z,27.80
2022-09-25T13:24:47.355Z,27.80
2022-09-25T13:34:55.532Z,28.40
2022-09-25T13:45:07.994Z,28.70
2022-09-25T13:55:19.706Z,28.80
2022-09-25T14:05:27.399Z,29.30
2022-09-25T14:15:35.833Z,29.20
2022-09-25T14:25:44.763Z,29.60
2022-09-25T14:35:55.183Z,29.40
2022-09-25T14:46:12.919Z,29.20
2022-09-25T14:56:17.030Z,28.80
2022-09-25T15:06:30.091Z,29.50
2022-09-25T15:16:51.828Z,29.20
2022-09-25T15:27:03.971Z,28.90
2022-09-25T15:37:26.371Z,28.70
2022-09-25T15:47:56.019Z,27.40
2022-09-25T15:58:08.464Z,26.10
2022-09-25T16:08:30.178Z,24.80
2022-09-25T16:18:41.040Z,23.70
2022-09-25T16:28:53.971Z,23.50
2022-09-25T16:39:22.580Z,23.10
2022-09-25T16:49:27.709Z,23.20
2022-09-25T16:59:31.956Z,22.70
2022-09-25T17:09:36.913Z,22.50
2022-09-25T17:19:40.597Z,22.30
2022-09-25T17:29:48.731Z,22.10
2022-09-25T17:39:52.427Z,22.00
2022-09-25T17:49:57.698Z,21.90
2022-09-25T18:00:01.619Z,21.90
2022-09-25T18:10:07.381Z,21.90
2022-09-25T18:20:32.687Z,21.70
2022-09-25T18:30:38.412Z,21.70
2022-09-25T18:40:42.408Z,21.40
2022-09-25T18:50:50.355Z,21.30
2022-09-25T19:00:54.007Z,20.80
2022-09-25T19:10:59.594Z,20.80
2022-09-25T19:21:04.080Z,20.90
2022-09-25T19:31:13.269Z,20.70
2022-09-25T19:41:19.532Z,20.30
2022-09-25T19:51:25.687Z,20.20
2022-09-25T20:01:30.476Z,20.10
2022-09-25T20:11:36.640Z,20.00
2022-09-25T20:21:41.726Z,20.00
2022-09-25T20:31:47.465Z,20.10
2022-09-25T20:41:51.643Z,19.90
2022-09-25T20:51:56.622Z,19.50
2022-09-25T21:02:00.533Z,19.60
2022-09-25T21:12:06.643Z,19.60
2022-09-25T21:22:10.386Z,19.20
2022-09-25T21:32:15.569Z,18.90
2022-09-25T21:42:19.171Z,18.90
2022-09-25T21:52:25.524Z,18.40
2022-09-25T22:02:31.487Z,18.20
2022-09-25T22:12:36.547Z,18.00
2022-09-25T22:22:40.191Z,18.10
2022-09-25T22:32:45.378Z,18.10
2022-09-25T22:42:49.195Z,18.30
2022-09-25T22:52:58.224Z,18.30
2022-09-25T23:03:02.251Z,18.30
2022-09-25T23:13:07.651Z,18.00
2022-09-25T23:23:11.373Z,18.00
2022-09-25T23:33:16.441Z,18.10
2022-09-25T23:43:20.966Z,18.10
2022-09-25T23:53:26.116Z,18.00
